Time;durP1;ratioP1;P1;durP2;ratioP2;P2;SDS_P1;SDS_P2;PMS_P1;PMS_P2;Temp;Humidity;BMP_temperature;BMP_pressure;BME280_temperature;BME280_humidity;BME280_pressure;Samples;Min_cycle;Max_cycle;Signal;HPM_P1;HPM_P2
2021/04/20 00:00:57;;;;;;;11.02;5.47;;;11.60;75.60;;;;;;5012101;28;20041;-77
2021/04/20 00:03:22;;;;;;;15.25;6.00;;;11.60;75.60;;;;;;5011536;28;20026;-77
2021/04/20 00:05:48;;;;;;;11.93;5.68;;;11.60;75.70;;;;;;5011846;28;20368;-77
2021/04/20 00:08:14;;;;;;;17.00;5.93;;;11.60;75.70;;;;;;5010182;28;20172;-77
2021/04/20 00:10:40;;;;;;;14.68;5.60;;;11.60;75.80;;;;;;5010890;28;20451;-76
2021/04/20 00:13:05;;;;;;;13.48;5.78;;;11.50;75.80;;;;;;5010117;28;20061;-78
2021/04/20 00:15:33;;;;;;;13.25;5.80;;;11.50;75.80;;;;;;5010708;28;20026;-77
2021/04/20 00:18:05;;;;;;;11.82;4.57;;;11.50;75.90;;;;;;5012087;28;20050;-77
2021/04/20 00:20:31;;;;;;;12.60;4.60;;;11.50;75.90;;;;;;5011835;28;20022;-77
2021/04/20 00:22:57;;;;;;;14.45;5.20;;;11.50;76.00;;;;;;5010791;28;20022;-77
2021/04/20 00:25:23;;;;;;;11.30;4.82;;;11.40;75.90;;;;;;5010097;28;20125;-76
2021/04/20 00:27:49;;;;;;;11.77;4.78;;;11.40;76.00;;;;;;5012166;28;20497;-76
2021/04/20 00:30:15;;;;;;;15.82;5.30;;;11.40;76.00;;;;;;5010000;28;20026;-76
2021/04/20 00:32:41;;;;;;;12.13;4.82;;;11.50;76.10;;;;;;5010678;28;20022;-77
2021/04/20 00:35:08;;;;;;;10.40;4.50;;;11.40;76.10;;;;;;5010225;28;20462;-77
2021/04/20 00:37:34;;;;;;;15.45;5.40;;;11.40;76.10;;;;;;5012527;28;20026;-77
2021/04/20 00:40:00;;;;;;;13.27;5.53;;;11.40;76.20;;;;;;5011702;28;20024;-77
2021/04/20 00:42:26;;;;;;;12.35;5.07;;;11.40;76.20;;;;;;5013784;28;20109;-76
2021/04/20 00:44:52;;;;;;;10.45;4.70;;;11.40;76.30;;;;;;5015580;28;20061;-77
2021/04/20 00:47:18;;;;;;;11.70;4.40;;;11.40;76.30;;;;;;5015053;28;20430;-76
2021/04/20 00:49:44;;;;;;;11.48;5.45;;;11.30;76.20;;;;;;5015627;28;20025;-77
2021/04/20 00:52:09;;;;;;;10.20;4.47;;;11.30;76.30;;;;;;5013259;28;20025;-77
2021/04/20 00:54:35;;;;;;;13.43;5.05;;;11.30;76.40;;;;;;5014151;28;20030;-78
2021/04/20 00:57:01;;;;;;;14.88;4.80;;;11.30;76.40;;;;;;5014076;28;20458;-77
2021/04/20 00:59:27;;;;;;;13.88;5.95;;;11.30;76.50;;;;;;5013486;28;20080;-76
2021/04/20 01:01:53;;;;;;;14.05;5.63;;;11.30;76.50;;;;;;5013961;28;20392;-76
2021/04/20 01:04:19;;;;;;;16.95;5.53;;;11.20;76.40;;;;;;5013341;28;20378;-77
2021/04/20 01:06:50;;;;;;;12.13;5.07;;;11.20;76.50;;;;;;5013971;28;20156;-77
2021/04/20 01:09:17;;;;;;;17.13;6.27;;;11.20;76.50;;;;;;5013513;28;20022;-76
2021/04/20 01:11:44;;;;;;;14.07;6.18;;;11.20;76.50;;;;;;5014064;28;20113;-77
2021/04/20 01:14:10;;;;;;;12.48;5.63;;;11.20;76.50;;;;;;5013323;28;20116;-78
2021/04/20 01:16:37;;;;;;;10.32;4.97;;;11.20;76.60;;;;;;5015173;28;20038;-76
2021/04/20 01:19:07;;;;;;;14.40;5.45;;;11.20;77.30;;;;;;5014702;28;20030;-76
2021/04/20 01:21:37;;;;;;;9.50;4.55;;;11.20;76.70;;;;;;5013799;28;20107;-77
2021/04/20 01:24:09;;;;;;;12.75;5.70;;;11.10;76.70;;;;;;5015083;28;20110;-77
2021/04/20 01:26:35;;;;;;;;;;;11.10;76.70;;;;;;5015032;28;20109;-76
2021/04/20 01:29:03;;;;;;;16.77;6.40;;;11.00;76.60;;;;;;5013546;28;20346;-76
2021/04/20 01:31:31;;;;;;;14.60;5.57;;;11.10;76.80;;;;;;5014220;28;20034;-78
2021/04/20 01:33:57;;;;;;;13.95;5.90;;;11.10;76.80;;;;;;5014438;28;20355;-77
2021/04/20 01:36:25;;;;;;;15.30;5.70;;;11.10;76.80;;;;;;5014024;28;20041;-77
2021/04/20 01:38:52;;;;;;;12.38;4.30;;;11.10;76.90;;;;;;5014716;28;20024;-77
2021/04/20 01:41:18;;;;;;;13.85;5.88;;;11.00;76.90;;;;;;5014004;28;20029;-77
2021/04/20 01:43:45;;;;;;;16.73;7.00;;;11.00;76.90;;;;;;5014180;28;20436;-76
2021/04/20 01:46:13;;;;;;;13.93;5.18;;;11.00;77.00;;;;;;5012472;28;20450;-78
2021/04/20 01:48:39;;;;;;;15.27;5.30;;;11.00;77.00;;;;;;5013339;28;20022;-77
2021/04/20 01:51:05;;;;;;;11.88;5.38;;;11.00;77.00;;;;;;5014204;28;20474;-78
2021/04/20 01:53:31;;;;;;;13.23;5.00;;;11.00;77.00;;;;;;5012223;28;20026;-77
2021/04/20 01:56:02;;;;;;;12.15;5.00;;;11.00;77.10;;;;;;5013151;28;20022;-78
2021/04/20 01:58:30;;;;;;;12.85;5.78;;;11.00;77.10;;;;;;5012341;28;20120;-78
2021/04/20 02:00:59;;;;;;;13.30;5.35;;;11.00;77.20;;;;;;5014517;28;20042;-76
2021/04/20 02:03:28;;;;;;;13.77;5.70;;;11.00;77.20;;;;;;5012429;28;20402;-77
2021/04/20 02:05:55;;;;;;;14.35;5.78;;;10.90;77.20;;;;;;5013728;28;20034;-77
2021/04/20 02:08:21;;;;;;;13.07;5.63;;;10.90;77.20;;;;;;5013895;28;20030;-78
2021/04/20 02:10:48;;;;;;;13.63;5.88;;;10.90;77.20;;;;;;5012519;28;20079;-77
2021/04/20 02:13:15;;;;;;;12.93;5.68;;;10.90;77.20;;;;;;5011690;28;20037;-78
2021/04/20 02:15:40;;;;;;;13.68;4.93;;;10.90;77.30;;;;;;5013999;28;20033;-77
2021/04/20 02:18:07;;;;;;;16.10;6.68;;;10.90;77.30;;;;;;5014175;28;20105;-77
2021/04/20 02:20:35;;;;;;;16.02;5.47;;;10.80;77.30;;;;;;5013373;28;20022;-76
2021/04/20 02:23:02;;;;;;;15.65;5.55;;;10.80;77.30;;;;;;5012723;28;20354;-76
2021/04/20 02:25:28;;;;;;;15.55;6.45;;;10.80;77.30;;;;;;5011893;28;20442;-77
2021/04/20 02:27:54;;;;;;;13.73;6.15;;;10.80;77.30;;;;;;5013847;28;20022;-77
2021/04/20 02:30:20;;;;;;;14.40;5.65;;;10.80;77.40;;;;;;5012965;28;20026;-78
2021/04/20 02:32:46;;;;;;;18.95;5.68;;;10.80;77.40;;;;;;5012295;28;20022;-78
2021/04/20 02:35:14;;;;;;;13.85;6.60;;;10.80;77.50;;;;;;5012692;28;20120;-78
2021/04/20 02:37:41;;;;;;;19.73;6.57;;;10.80;77.50;;;;;;5012257;28;20054;-78
2021/04/20 02:40:10;;;;;;;12.57;5.28;;;10.80;77.50;;;;;;5013501;28;20022;-76
2021/04/20 02:42:38;;;;;;;16.27;6.47;;;10.70;77.50;;;;;;5012387;28;20022;-77
2021/04/20 02:45:06;;;;;;;13.75;6.40;;;10.70;77.60;;;;;;5012098;28;20026;-77
2021/04/20 02:47:36;;;;;;;18.30;6.30;;;10.70;77.60;;;;;;5011472;28;20261;-78
2021/04/20 02:50:11;;;;;;;17.58;6.45;;;10.70;77.70;;;;;;5013359;28;20033;-78
2021/04/20 02:52:37;;;;;;;14.65;6.30;;;10.70;77.80;;;;;;5012980;28;20041;-76
2021/04/20 02:55:06;;;;;;;15.95;6.25;;;10.70;77.80;;;;;;5013278;28;20026;-77
2021/04/20 02:57:36;;;;;;;12.27;5.35;;;10.70;77.90;;;;;;5013094;28;20249;-77
2021/04/20 03:00:05;;;;;;;16.80;6.68;;;10.60;77.80;;;;;;5013336;28;20053;-77
2021/04/20 03:02:31;;;;;;;15.25;5.88;;;10.60;77.90;;;;;;5010974;28;20064;-77
2021/04/20 03:04:57;;;;;;;15.88;6.07;;;10.60;77.90;;;;;;5007059;28;20483;-77
2021/04/20 03:07:23;;;;;;;14.38;5.90;;;10.60;77.90;;;;;;4992888;28;20026;-76
2021/04/20 03:09:49;;;;;;;15.73;6.00;;;10.60;78.00;;;;;;4993150;28;20106;-77
2021/04/20 03:12:17;;;;;;;15.20;5.55;;;10.60;78.00;;;;;;4992756;28;20398;-77
2021/04/20 03:14:43;;;;;;;18.63;6.13;;;10.60;78.00;;;;;;4993308;28;20113;-77
2021/04/20 03:17:09;;;;;;;15.32;5.93;;;10.50;78.00;;;;;;4993316;28;20069;-79
2021/04/20 03:19:34;;;;;;;15.25;6.18;;;10.50;78.00;;;;;;5006825;28;20032;-78
2021/04/20 03:22:01;;;;;;;15.18;5.93;;;10.50;78.00;;;;;;5012473;28;20022;-79
2021/04/20 03:24:33;;;;;;;15.70;5.90;;;10.50;78.00;;;;;;5010405;28;20163;-78
2021/04/20 03:26:59;;;;;;;;;;;10.40;78.00;;;;;;5013382;28;20105;-79
2021/04/20 03:29:24;;;;;;;16.00;5.95;;;10.40;78.00;;;;;;5011467;28;20361;-79
2021/04/20 03:31:51;;;;;;;14.90;5.70;;;10.40;78.00;;;;;;5011258;28;20390;-79
2021/04/20 03:34:27;;;;;;;16.55;6.57;;;10.40;78.00;;;;;;5010698;28;20351;-80
2021/04/20 03:36:59;;;;;;;13.68;6.55;;;10.30;78.00;;;;;;5012608;28;20137;-78
2021/04/20 03:39:26;;;;;;;;;;;10.30;78.00;;;;;;5012584;28;20482;-79
2021/04/20 03:42:02;;;;;;;15.95;6.80;;;10.20;78.00;;;;;;5012227;28;19905;-79
2021/04/20 03:44:34;;;;;;;15.20;6.05;;;10.20;78.00;;;;;;5011814;28;20151;-76
2021/04/20 03:47:02;;;;;;;15.38;6.38;;;10.20;78.00;;;;;;5012147;28;20458;-77
2021/04/20 03:49:37;;;;;;;13.82;6.20;;;10.20;78.00;;;;;;5011467;28;20022;-77
2021/04/20 03:52:10;;;;;;;13.15;5.97;;;10.20;78.10;;;;;;5012021;28;20030;-76
2021/04/20 03:54:38;;;;;;;16.92;6.40;;;10.20;78.20;;;;;;5009929;28;20269;-79
2021/04/20 03:57:04;;;;;;;20.17;6.32;;;10.10;78.20;;;;;;5010237;28;20026;-75
2021/04/20 03:59:30;;;;;;;19.05;6.90;;;10.10;78.20;;;;;;5009650;28;20037;-78
2021/04/20 04:01:58;;;;;;;14.27;5.85;;;10.10;78.30;;;;;;5009706;28;20053;-78
2021/04/20 04:04:27;;;;;;;17.73;7.55;;;10.10;78.30;;;;;;5009155;28;20087;-77
2021/04/20 04:06:54;;;;;;;16.13;6.45;;;10.10;78.40;;;;;;5025205;28;20088;-78
2021/04/20 04:09:20;;;;;;;19.58;7.05;;;10.10;78.40;;;;;;5007550;28;20026;-77
2021/04/20 04:11:54;;;;;;;18.55;6.45;;;10.10;78.40;;;;;;5010040;28;20080;-73
2021/04/20 04:14:24;;;;;;;17.88;6.57;;;10.10;78.40;;;;;;5011076;28;20026;-78
2021/04/20 04:16:51;;;;;;;19.17;6.10;;;10.00;79.00;;;;;;5014268;28;20033;-78
2021/04/20 04:19:20;;;;;;;19.42;5.57;;;10.00;78.40;;;;;;5014721;28;20410;-78
2021/04/20 04:21:53;;;;;;;13.02;5.50;;;10.00;78.40;;;;;;5014411;28;20029;-77
2021/04/20 04:24:19;;;;;;;16.08;6.90;;;10.00;78.40;;;;;;5015877;28;20045;-79
2021/04/20 04:26:56;;;;;;;17.42;6.75;;;10.00;78.40;;;;;;5015679;28;20061;-77
2021/04/20 04:29:25;;;;;;;16.50;6.15;;;10.00;78.40;;;;;;5013643;28;20034;-78
2021/04/20 04:31:52;;;;;;;17.50;8.00;;;9.90;78.40;;;;;;5015843;28;20475;-78
2021/04/20 04:34:18;;;;;;;14.40;6.50;;;9.90;78.40;;;;;;5014590;28;20032;-77
2021/04/20 04:36:45;;;;;;;17.73;5.78;;;9.90;78.40;;;;;;5015161;28;20029;-77
2021/04/20 04:39:13;;;;;;;17.67;7.03;;;9.90;78.50;;;;;;5014690;28;20356;-77
2021/04/20 04:41:39;;;;;;;15.85;5.38;;;9.90;78.40;;;;;;5013572;28;20080;-78
2021/04/20 04:44:05;;;;;;;17.50;6.90;;;9.80;78.30;;;;;;5014263;28;20022;-77
2021/04/20 04:46:31;;;;;;;22.30;7.35;;;9.80;78.30;;;;;;5013507;28;20038;-78
2021/04/20 04:48:59;;;;;;;13.88;5.75;;;9.80;78.40;;;;;;5014216;28;20028;-78
2021/04/20 04:51:26;;;;;;;16.02;5.75;;;9.80;78.40;;;;;;5014839;28;20033;-78
2021/04/20 04:53:52;;;;;;;19.05;7.00;;;9.80;78.40;;;;;;5015183;28;20022;-78
2021/04/20 04:56:18;;;;;;;14.93;6.28;;;9.70;78.40;;;;;;5015365;28;20026;-78
2021/04/20 04:58:45;;;;;;;15.50;6.18;;;9.80;78.80;;;;;;5014902;28;20369;-78
2021/04/20 05:01:15;;;;;;;16.25;6.38;;;9.70;78.40;;;;;;5015623;28;20046;-79
2021/04/20 05:03:41;;;;;;;17.98;6.57;;;9.80;78.50;;;;;;5013577;28;20018;-79
2021/04/20 05:06:12;;;;;;;14.45;6.07;;;9.70;78.40;;;;;;5015140;28;20516;-79
2021/04/20 05:08:38;;;;;;;15.82;6.35;;;9.80;78.50;;;;;;5014803;28;20018;-79
2021/04/20 05:11:03;;;;;;;18.33;6.05;;;9.70;78.40;;;;;;5014797;28;20080;-77
2021/04/20 05:13:30;;;;;;;14.23;6.32;;;9.70;78.40;;;;;;5013133;28;20022;-78
2021/04/20 05:15:56;;;;;;;13.85;5.68;;;9.70;78.40;;;;;;5013581;28;20543;-78
2021/04/20 05:18:25;;;;;;;14.57;5.85;;;9.70;78.40;;;;;;5013529;28;20122;-77
2021/04/20 05:20:51;;;;;;;20.00;6.47;;;9.70;78.40;;;;;;5013476;28;20022;-77
2021/04/20 05:23:17;;;;;;;16.02;5.32;;;9.80;78.50;;;;;;5013662;28;20462;-77
2021/04/20 05:25:44;;;;;;;17.38;6.20;;;9.70;78.40;;;;;;5014294;28;20280;-78
2021/04/20 05:28:10;;;;;;;19.17;6.78;;;9.70;78.40;;;;;;5012325;28;20034;-78
2021/04/20 05:30:36;;;;;;;19.35;6.47;;;9.70;78.50;;;;;;5013725;28;20425;-78
2021/04/20 05:33:03;;;;;;;18.92;6.75;;;9.80;78.50;;;;;;5014395;28;20037;-76
2021/04/20 05:35:28;;;;;;;19.88;7.10;;;9.80;78.50;;;;;;5013899;28;20025;-78
2021/04/20 05:37:54;;;;;;;17.63;7.28;;;9.80;78.50;;;;;;5014327;28;20026;-77
2021/04/20 05:40:26;;;;;;;18.20;6.72;;;9.80;78.50;;;;;;5013052;28;20025;-78
2021/04/20 05:42:56;;;;;;;14.65;5.57;;;9.90;78.60;;;;;;5013171;28;20026;-78
2021/04/20 05:45:23;;;;;;;15.18;6.68;;;9.90;78.50;;;;;;5012852;28;20038;-79
2021/04/20 05:47:50;;;;;;;18.25;6.72;;;9.90;78.50;;;;;;5013389;28;20038;-78
2021/04/20 05:50:28;;;;;;;16.50;6.00;;;9.90;78.60;;;;;;5014341;28;20030;-76
2021/04/20 05:52:54;;;;;;;12.75;5.45;;;9.90;78.60;;;;;;5012860;28;20029;-77
2021/04/20 05:55:20;;;;;;;18.20;7.45;;;10.00;78.60;;;;;;5014192;28;20026;-76
2021/04/20 05:57:48;;;;;;;17.70;7.60;;;10.00;78.60;;;;;;5013496;28;20032;-77
2021/04/20 06:00:16;;;;;;;16.58;6.63;;;10.00;78.60;;;;;;5013728;28;20046;-78
2021/04/20 06:02:42;;;;;;;18.20;6.63;;;10.00;78.60;;;;;;5012233;28;20014;-78
2021/04/20 06:05:12;;;;;;;16.38;6.05;;;10.10;78.70;;;;;;5014132;28;20121;-77
2021/04/20 06:07:42;;;;;;;15.25;6.05;;;10.10;78.70;;;;;;5013472;28;20550;-78
2021/04/20 06:10:09;;;;;;;16.83;6.32;;;10.10;78.60;;;;;;5014053;28;20057;-77
2021/04/20 06:12:37;;;;;;;16.60;5.85;;;10.10;78.60;;;;;;5013294;28;20025;-78
2021/04/20 06:15:07;;;;;;;16.15;7.47;;;10.20;78.70;;;;;;5013860;28;20034;-78
2021/04/20 06:17:39;;;;;;;17.38;6.53;;;10.20;78.70;;;;;;5013290;28;20037;-77
2021/04/20 06:20:05;;;;;;;;;;;10.30;78.60;;;;;;5012756;28;20022;-78
2021/04/20 06:22:31;;;;;;;16.88;6.13;;;10.20;78.50;;;;;;5012610;28;19927;-79
2021/04/20 06:24:58;;;;;;;23.98;7.43;;;10.30;78.50;;;;;;5013754;28;20220;-77
2021/04/20 06:27:25;;;;;;;17.25;6.28;;;10.40;78.60;;;;;;5012353;28;20022;-77
2021/04/20 06:29:50;;;;;;;19.23;7.15;;;10.40;78.60;;;;;;5012583;28;20052;-78
2021/04/20 06:32:18;;;;;;;20.92;6.25;;;10.40;78.60;;;;;;5012308;28;20049;-78
2021/04/20 06:34:43;;;;;;;17.55;6.35;;;10.50;78.60;;;;;;5011273;28;20022;-78
2021/04/20 06:37:10;;;;;;;15.55;5.95;;;10.50;78.60;;;;;;5012292;28;20404;-78
2021/04/20 06:39:39;;;;;;;17.27;7.20;;;10.50;78.50;;;;;;5011140;28;20105;-78
2021/04/20 06:42:19;;;;;;;16.77;7.15;;;10.60;78.50;;;;;;5013317;28;20036;-77
2021/04/20 06:44:58;;;;;;;17.15;6.20;;;10.70;78.50;;;;;;5011369;28;20022;-78
2021/04/20 06:47:30;;;;;;;20.20;7.28;;;10.70;78.50;;;;;;5011756;28;20022;-78
2021/04/20 06:50:00;;;;;;;;;;;10.70;78.50;;;;;;5013760;28;20026;-78
2021/04/20 06:52:54;;;;;;;18.95;6.72;;;10.70;78.20;;;;;;5011705;28;20006;-78
2021/04/20 06:55:51;;;;;;;20.02;6.63;;;10.80;78.20;;;;;;4985263;28;20037;-78
2021/04/20 06:58:39;;;;;;;18.88;7.28;;;10.90;78.20;;;;;;5009601;28;20164;-79
2021/04/20 07:01:09;;;;;;;16.77;6.47;;;10.90;78.20;;;;;;5012746;28;20089;-78
2021/04/20 07:03:48;;;;;;;19.17;6.70;;;11.00;78.20;;;;;;5012337;28;20029;-79
2021/04/20 07:06:30;;;;;;;18.38;7.93;;;11.00;78.20;;;;;;5011336;28;20030;-78
2021/04/20 07:09:20;;;;;;;19.77;7.82;;;11.10;78.10;;;;;;5027923;28;20049;-78
2021/04/20 07:11:48;;;;;;;18.77;6.80;;;11.10;78.10;;;;;;5010764;28;20033;-78
2021/04/20 07:14:35;;;;;;;20.13;7.15;;;11.20;78.10;;;;;;5011183;28;20026;-78
2021/04/20 07:17:10;;;;;;;17.83;7.10;;;11.20;78.10;;;;;;5011328;28;20029;-78
2021/04/20 07:20:19;;;;;;;20.30;7.18;;;11.30;78.00;;;;;;5010673;28;20390;-77
2021/04/20 07:23:10;;;;;;;17.10;6.63;;;11.40;77.80;;;;;;4964434;28;20487;-77
2021/04/20 07:26:07;;;;;;;18.35;8.48;;;11.40;77.70;;;;;;5011636;28;20529;-78
2021/04/20 07:28:51;;;;;;;15.10;7.20;;;11.50;77.70;;;;;;5010926;28;20026;-80
2021/04/20 07:31:54;;;;;;;19.77;6.07;;;11.50;77.60;;;;;;5012675;28;20026;-78
2021/04/20 07:34:41;;;;;;;14.88;5.90;;;11.60;77.50;;;;;;5012512;28;20025;-78
2021/04/20 07:37:31;;;;;;;17.45;6.80;;;11.60;77.50;;;;;;5011175;28;20459;-78
2021/04/20 07:40:04;;;;;;;16.47;7.27;;;11.70;77.50;;;;;;5011833;28;20053;-78
2021/04/20 07:43:02;;;;;;;16.77;6.63;;;11.70;77.40;;;;;;5012414;28;20032;-79
2021/04/20 07:45:39;;;;;;;13.82;5.88;;;11.80;77.20;;;;;;5010841;28;20465;-78
2021/04/20 07:48:20;;;;;;;14.35;5.75;;;11.80;77.10;;;;;;5011022;28;20026;-78
2021/04/20 07:50:53;;;;;;;16.08;6.70;;;11.90;77.00;;;;;;5009657;28;20025;-78
2021/04/20 07:53:33;;;;;;;17.15;6.00;;;11.90;77.00;;;;;;5011949;28;20037;-77
2021/04/20 07:56:07;;;;;;;17.63;7.13;;;12.00;76.90;;;;;;5011549;28;20497;-78
2021/04/20 07:58:42;;;;;;;16.60;6.63;;;12.00;76.70;;;;;;5012129;28;20052;-77
2021/04/20 08:01:32;;;;;;;21.60;6.05;;;12.10;76.60;;;;;;5012006;28;20057;-78
2021/04/20 08:04:48;;;;;;;11.18;5.22;;;12.20;76.50;;;;;;5011117;28;20026;-78
2021/04/20 08:07:40;;;;;;;14.25;5.30;;;12.20;76.00;;;;;;5011948;28;20060;-78
2021/04/20 08:10:12;;;;;;;14.45;5.22;;;12.30;75.80;;;;;;5010532;28;20071;-77
2021/04/20 08:12:53;;;;;;;14.15;5.43;;;12.30;75.70;;;;;;5011338;28;20435;-79
2021/04/20 08:15:27;;;;;;;14.05;5.07;;;12.40;75.60;;;;;;5012135;28;20030;-78
2021/04/20 08:18:04;;;;;;;16.23;6.25;;;12.40;75.50;;;;;;5011442;28;20466;-78
2021/04/20 08:20:31;;;;;;;11.65;5.60;;;12.60;75.30;;;;;;5010690;28;20084;-77
2021/04/20 08:23:00;;;;;;;12.30;4.85;;;12.60;75.20;;;;;;5009833;28;20030;-78
2021/04/20 08:25:39;;;;;;;14.13;6.05;;;12.70;75.10;;;;;;5011767;28;20026;-77
2021/04/20 08:28:36;;;;;;;10.93;5.05;;;12.70;75.00;;;;;;5012124;28;20084;-77
2021/04/20 08:31:05;;;;;;;14.98;5.32;;;12.80;74.70;;;;;;5011584;28;20037;-78
2021/04/20 08:33:36;;;;;;;14.00;4.88;;;12.80;74.70;;;;;;5010417;28;20117;-77
2021/04/20 08:36:27;;;;;;;9.88;4.75;;;12.90;74.60;;;;;;5011506;28;20034;-78
2021/04/20 08:39:00;;;;;;;13.23;4.07;;;12.90;74.40;;;;;;5005269;28;20092;-77
2021/04/20 08:41:36;;;;;;;8.15;3.42;;;13.00;74.20;;;;;;5011900;28;20026;-77
2021/04/20 08:44:34;;;;;;;8.88;3.75;;;13.10;73.90;;;;;;5009806;28;20018;-78
2021/04/20 08:47:11;;;;;;;8.88;4.30;;;13.10;73.70;;;;;;5009780;28;20030;-77
2021/04/20 08:49:56;;;;;;;13.38;5.07;;;13.20;73.50;;;;;;5010425;28;20018;-78
2021/04/20 08:52:51;;;;;;;9.65;3.85;;;13.20;73.40;;;;;;5026924;28;20453;-78
2021/04/20 08:55:34;;;;;;;9.43;4.30;;;13.30;73.30;;;;;;5011272;28;20025;-78
2021/04/20 08:58:21;;;;;;;13.55;5.00;;;13.30;72.90;;;;;;5009545;28;20080;-78
2021/04/20 09:00:49;;;;;;;9.25;4.00;;;13.40;72.90;;;;;;5010790;28;20058;-78
2021/04/20 09:03:37;;;;;;;11.18;4.18;;;13.40;72.80;;;;;;5013706;28;20026;-78
2021/04/20 09:06:07;;;;;;;10.00;4.32;;;13.50;72.70;;;;;;5014345;28;20107;-78
2021/04/20 09:08:42;;;;;;;10.23;4.53;;;13.50;72.40;;;;;;5014976;28;20041;-78
2021/04/20 09:11:15;;;;;;;11.07;4.38;;;13.60;72.30;;;;;;5015114;28;20029;-78
2021/04/20 09:13:58;;;;;;;9.38;4.30;;;13.60;72.10;;;;;;5014707;28;20107;-80
2021/04/20 09:16:56;;;;;;;8.63;3.90;;;13.70;71.90;;;;;;5014830;28;20029;-78
2021/04/20 09:19:34;;;;;;;8.63;3.58;;;13.80;71.70;;;;;;5007709;28;20072;-78
2021/04/20 09:22:29;;;;;;;9.68;4.28;;;13.80;71.70;;;;;;5014144;28;20026;-78
2021/04/20 09:25:24;;;;;;;7.80;3.33;;;13.90;71.50;;;;;;5012744;28;20393;-79
2021/04/20 09:28:15;;;;;;;10.80;3.83;;;13.90;71.30;;;;;;5012835;28;20034;-78
2021/04/20 09:30:57;;;;;;;13.10;4.22;;;14.00;71.20;;;;;;5013447;28;20393;-77
2021/04/20 09:33:38;;;;;;;7.40;3.47;;;14.00;71.00;;;;;;5014565;28;20025;-77
2021/04/20 09:36:07;;;;;;;10.75;4.15;;;14.10;70.80;;;;;;5013980;28;20449;-77
2021/04/20 09:38:38;;;;;;;9.60;4.40;;;14.10;70.70;;;;;;5013367;28;20029;-78
2021/04/20 09:41:06;;;;;;;6.60;3.00;;;14.20;70.50;;;;;;5029088;28;20037;-77
2021/04/20 09:43:43;;;;;;;11.02;3.90;;;14.30;70.40;;;;;;5012925;28;20030;-78
2021/04/20 09:46:15;;;;;;;10.77;4.10;;;14.40;70.20;;;;;;5012969;28;20474;-79
2021/04/20 09:49:19;;;;;;;7.82;3.47;;;14.40;70.00;;;;;;5013096;28;20076;-77
2021/04/20 09:51:56;;;;;;;7.07;3.40;;;14.50;69.80;;;;;;5013730;28;20018;-78
2021/04/20 09:54:31;;;;;;;7.35;3.58;;;14.60;69.60;;;;;;5012953;28;20022;-78
2021/04/20 09:57:01;;;;;;;11.43;3.92;;;14.60;69.30;;;;;;5013738;28;20037;-78
2021/04/20 09:59:45;;;;;;;8.18;3.40;;;14.70;69.10;;;;;;5014252;28;20033;-79
2021/04/20 10:02:28;;;;;;;9.13;3.97;;;14.80;68.80;;;;;;5012385;28;20398;-78
2021/04/20 10:05:23;;;;;;;8.68;3.47;;;14.90;68.50;;;;;;5011699;28;20467;-77
2021/04/20 10:08:23;;;;;;;5.60;2.80;;;14.90;68.20;;;;;;4993732;28;20034;-77
2021/04/20 10:10:57;;;;;;;7.60;3.45;;;14.90;67.90;;;;;;5011769;28;20038;-78
2021/04/20 10:13:49;;;;;;;5.07;2.72;;;15.00;67.70;;;;;;5012900;28;20030;-78
2021/04/20 10:16:27;;;;;;;5.32;3.15;;;15.10;67.30;;;;;;5013765;28;20067;-77
2021/04/20 10:19:12;;;;;;;7.78;3.35;;;15.10;67.10;;;;;;5011819;28;20037;-77
2021/04/20 10:21:47;;;;;;;8.02;3.85;;;15.10;66.70;;;;;;5012470;28;20022;-78
2021/04/20 10:24:24;;;;;;;8.40;3.95;;;15.20;66.30;;;;;;5012302;28;20378;-78
2021/04/20 10:27:02;;;;;;;7.78;3.40;;;15.30;66.10;;;;;;5012790;28;20119;-79
2021/04/20 10:29:49;;;;;;;7.65;3.13;;;15.30;65.90;;;;;;5012790;28;20369;-77
2021/04/20 10:32:31;;;;;;;6.05;2.95;;;15.30;65.70;;;;;;5012372;28;20022;-78
2021/04/20 10:34:59;;;;;;;8.35;2.67;;;15.40;65.60;;;;;;5012823;28;20021;-78
2021/04/20 10:37:40;;;;;;;6.90;3.08;;;15.40;65.10;;;;;;5013327;28;20065;-78
2021/04/20 10:40:10;;;;;;;5.80;2.28;;;15.50;64.80;;;;;;5012608;28;20021;-78
2021/04/20 10:42:38;;;;;;;7.38;2.97;;;15.50;64.50;;;;;;5013481;28;20060;-78
2021/04/20 10:45:06;;;;;;;6.93;2.75;;;15.60;64.20;;;;;;5012653;28;20182;-79
2021/04/20 10:47:34;;;;;;;5.13;2.85;;;15.60;63.60;;;;;;5013380;28;20072;-78
2021/04/20 10:50:00;;;;;;;4.50;2.33;;;15.70;63.50;;;;;;5012733;28;20032;-79
2021/04/20 10:52:33;;;;;;;3.67;1.83;;;15.80;63.40;;;;;;5012795;28;20029;-78
2021/04/20 10:55:06;;;;;;;3.67;2.20;;;15.90;63.10;;;;;;5012440;28;20137;-78
2021/04/20 10:57:33;;;;;;;6.55;2.92;;;15.90;62.60;;;;;;5011718;28;20121;-78
2021/04/20 11:00:02;;;;;;;8.07;3.00;;;16.00;61.80;;;;;;5012454;28;20026;-79
2021/04/20 11:02:34;;;;;;;8.13;3.25;;;16.10;61.50;;;;;;5013198;28;20050;-78
2021/04/20 11:05:01;;;;;;;7.38;2.83;;;16.10;61.00;;;;;;5010669;28;20034;-77
2021/04/20 11:07:34;;;;;;;5.38;3.13;;;16.20;61.00;;;;;;5012571;28;20018;-77
2021/04/20 11:10:05;;;;;;;6.28;3.22;;;16.30;60.10;;;;;;5012580;28;20018;-79
2021/04/20 11:12:31;;;;;;;;;;;16.40;58.90;;;;;;5012971;28;20494;-78
2021/04/20 11:14:59;;;;;;;5.00;2.65;;;16.50;57.60;;;;;;5010597;28;19941;-78
2021/04/20 11:17:42;;;;;;;7.32;2.95;;;16.60;57.60;;;;;;5013119;28;20045;-78
2021/04/20 11:20:36;;;;;;;6.63;2.50;;;16.80;56.60;;;;;;5010601;28;20056;-78
2021/04/20 11:23:31;;;;;;;5.38;2.83;;;17.00;55.50;;;;;;5010728;28;20018;-78
2021/04/20 11:26:26;;;;;;;8.25;3.00;;;17.10;55.20;;;;;;5010414;28;20457;-79
2021/04/20 11:28:54;;;;;;;5.60;2.60;;;17.20;55.50;;;;;;5007090;28;20038;-77
2021/04/20 11:31:40;;;;;;;5.28;2.50;;;17.40;55.70;;;;;;5012238;28;20406;-78
2021/04/20 11:34:31;;;;;;;3.67;2.08;;;17.50;55.70;;;;;;5008898;28;20149;-78
2021/04/20 11:37:12;;;;;;;4.53;1.70;;;17.70;55.60;;;;;;5011792;28;20066;-78
2021/04/20 11:40:07;;;;;;;4.53;2.20;;;17.90;55.70;;;;;;5011110;28;20084;-78
2021/04/20 11:42:38;;;;;;;3.78;2.15;;;18.10;55.70;;;;;;5010982;28;20377;-78
2021/04/20 11:45:18;;;;;;;5.35;2.30;;;18.30;55.70;;;;;;5010341;28;20148;-79
2021/04/20 11:47:56;;;;;;;6.50;2.80;;;18.50;55.60;;;;;;5012423;28;20033;-78
2021/04/20 11:50:23;;;;;;;5.60;2.08;;;18.70;55.00;;;;;;5011111;28;20022;-79
2021/04/20 11:52:57;;;;;;;5.55;2.72;;;18.80;54.90;;;;;;5012294;28;20030;-78
2021/04/20 11:55:38;;;;;;;5.38;2.38;;;19.00;54.80;;;;;;5010911;28;20113;-79
2021/04/20 11:58:07;;;;;;;4.75;2.20;;;19.10;54.90;;;;;;5011257;28;20018;-78
2021/04/20 12:00:35;;;;;;;5.50;2.13;;;19.30;54.80;;;;;;5010692;28;20442;-77
2021/04/20 12:03:19;;;;;;;4.57;2.35;;;19.40;54.00;;;;;;5009958;28;20052;-79
2021/04/20 12:05:47;;;;;;;4.53;2.28;;;19.50;53.70;;;;;;5012321;28;20069;-78
2021/04/20 12:08:33;;;;;;;7.63;2.42;;;19.60;53.80;;;;;;5011535;28;20037;-79
2021/04/20 12:11:05;;;;;;;5.22;2.60;;;19.80;53.40;;;;;;5011520;28;20129;-80
2021/04/20 12:13:34;;;;;;;5.80;2.67;;;19.90;53.10;;;;;;5010884;28;20018;-78
2021/04/20 12:16:03;;;;;;;6.00;2.50;;;19.80;53.00;;;;;;5010044;28;20034;-78
2021/04/20 12:18:30;;;;;;;5.70;2.30;;;19.90;53.10;;;;;;5010444;28;20026;-77
2021/04/20 12:21:02;;;;;;;4.15;1.85;;;20.10;53.10;;;;;;5011343;28;20037;-77
2021/04/20 12:23:30;;;;;;;6.18;2.92;;;20.30;52.70;;;;;;5011717;28;20022;-78
2021/04/20 12:25:59;;;;;;;6.22;2.88;;;20.40;52.70;;;;;;5009921;28;20033;-77
2021/04/20 12:28:26;;;;;;;7.30;2.97;;;20.50;52.80;;;;;;5010808;28;20022;-77
2021/04/20 12:30:52;;;;;;;6.88;2.20;;;20.60;52.70;;;;;;5027588;28;20101;-78
2021/04/20 12:33:22;;;;;;;7.32;2.42;;;20.70;52.70;;;;;;5011437;28;20052;-78
2021/04/20 12:35:48;;;;;;;6.53;2.33;;;20.80;52.60;;;;;;5012571;28;20052;-77
2021/04/20 12:38:19;;;;;;;5.85;2.60;;;20.80;52.10;;;;;;5015208;28;20018;-78
2021/04/20 12:40:49;;;;;;;5.05;2.80;;;20.80;52.00;;;;;;5015741;28;20026;-77
2021/04/20 12:43:18;;;;;;;6.68;2.92;;;20.80;52.00;;;;;;5013323;28;20117;-78
2021/04/20 12:45:44;;;;;;;6.05;2.80;;;20.80;51.80;;;;;;5015832;28;20057;-77
2021/04/20 12:48:11;;;;;;;7.13;2.72;;;20.80;51.70;;;;;;5013604;28;20450;-78
2021/04/20 12:50:46;;;;;;;4.35;2.28;;;20.80;51.60;;;;;;5015612;28;20032;-79
2021/04/20 12:53:14;;;;;;;5.28;2.65;;;20.90;51.60;;;;;;5014682;28;20466;-79
2021/04/20 12:55:42;;;;;;;4.25;2.42;;;20.90;51.40;;;;;;5014259;28;20571;-79
2021/04/20 12:58:11;;;;;;;5.07;2.20;;;20.80;51.30;;;;;;5014782;28;20105;-78
2021/04/20 13:00:38;;;;;;;5.88;2.50;;;20.80;51.30;;;;;;5014107;28;20033;-78
2021/04/20 13:03:05;;;;;;;4.18;2.28;;;20.80;51.20;;;;;;5014438;28;20136;-79
2021/04/20 13:05:35;;;;;;;5.55;2.35;;;20.80;51.10;;;;;;5013783;28;20161;-79
2021/04/20 13:08:07;;;;;;;5.03;1.98;;;20.80;50.80;;;;;;5029954;28;20116;-79
2021/04/20 13:10:33;;;;;;;5.03;2.10;;;20.60;50.90;;;;;;5014970;28;20058;-77